createdAt,value
2022-10-01T00:01:28.454Z,95985.94
2022-10-01T00:03:57.279Z,95983.73
2022-10-01T00:06:25.233Z,95984.80
2022-10-01T00:08:53.402Z,95984.42
2022-10-01T00:11:23.415Z,95981.40
2022-10-01T00:13:51.951Z,95975.92
2022-10-01T00:16:24.255Z,95975.30
2022-10-01T00:18:55.704Z,95979.86
2022-10-01T00:21:25.450Z,95978.53
2022-10-01T00:23:57.923Z,95972.30
2022-10-01T00:26:28.106Z,95967.94
2022-10-01T00:28:57.810Z,95967.30
2022-10-01T00:31:26.004Z,95973.50
2022-10-01T00:33:55.076Z,95973.77
2022-10-01T00:36:23.009Z,95973.51
2022-10-01T00:38:51.278Z,95978.41
2022-10-01T00:41:19.706Z,95972.35
2022-10-01T00:43:50.374Z,95973.27
2022-10-01T00:46:25.384Z,95977.95
2022-10-01T00:48:59.450Z,95977.95
2022-10-01T00:51:30.368Z,95980.23
2022-10-01T00:54:03.292Z,95973.00
2022-10-01T00:56:32.114Z,95970.23
2022-10-01T00:59:00.380Z,95972.31
2022-10-01T01:01:28.850Z,95977.52
2022-10-01T01:03:57.986Z,95977.84
2022-10-01T01:06:26.064Z,95973.29
2022-10-01T01:08:55.282Z,95972.52
2022-10-01T01:11:35.400Z,95974.12
2022-10-01T01:14:15.297Z,95966.09
2022-10-01T01:16:48.429Z,95967.18
2022-10-01T01:19:16.399Z,95962.72
2022-10-01T01:21:46.618Z,95959.16
2022-10-01T01:24:33.593Z,95958.77
2022-10-01T01:27:21.842Z,95962.25
2022-10-01T01:29:49.787Z,95967.42
2022-10-01T01:32:22.462Z,95973.41
2022-10-01T01:34:52.071Z,95973.92
2022-10-01T01:37:23.120Z,95971.81
2022-10-01T01:39:52.918Z,95969.14
2022-10-01T01:42:30.180Z,95966.70
2022-10-01T01:45:00.111Z,95963.29
2022-10-01T01:47:30.553Z,95960.48
2022-10-01T01:50:00.697Z,95954.44
2022-10-01T01:52:29.377Z,95953.49
2022-10-01T01:54:58.138Z,95962.86
2022-10-01T01:57:26.991Z,95968.15
2022-10-01T01:59:55.691Z,95971.76
2022-10-01T02:02:26.064Z,95980.24
2022-10-01T02:05:00.815Z,95981.33
2022-10-01T02:07:28.842Z,95982.46
2022-10-01T02:09:59.824Z,95987.19
2022-10-01T02:12:33.886Z,95990.00
2022-10-01T02:15:01.935Z,95997.30
2022-10-01T02:17:35.431Z,95994.91
2022-10-01T02:20:20.870Z,95990.67
2022-10-01T02:22:48.855Z,95996.77
2022-10-01T02:25:19.237Z,95995.08
2022-10-01T02:27:56.281Z,95996.91
2022-10-01T02:30:25.045Z,95997.79
2022-10-01T02:32:54.492Z,95998.10
2022-10-01T02:35:23.794Z,96000.15
2022-10-01T02:37:52.768Z,95999.12
2022-10-01T02:40:26.402Z,96000.55
2022-10-01T02:42:57.449Z,95995.44
2022-10-01T02:45:26.468Z,95993.45
2022-10-01T02:47:57.369Z,95993.88
2022-10-01T02:50:29.054Z,95991.47
2022-10-01T02:53:03.041Z,95989.98
2022-10-01T02:55:34.814Z,95989.84
2022-10-01T02:58:02.899Z,95996.24
2022-10-01T03:00:30.911Z,96001.52
2022-10-01T03:02:58.979Z,96008.48
2022-10-01T03:05:27.229Z,96012.98
2022-10-01T03:07:55.329Z,96010.89
2022-10-01T03:10:23.297Z,96007.31
2022-10-01T03:12:51.305Z,96012.34
2022-10-01T03:15:20.152Z,96007.02
2022-10-01T03:17:51.518Z,96004.05
2022-10-01T03:20:19.766Z,96003.23
2022-10-01T03:22:48.035Z,96004.31
2022-10-01T03:25:16.221Z,96005.02
2022-10-01T03:27:44.254Z,96001.59
2022-10-01T03:30:12.608Z,96001.18
2022-10-01T03:32:40.505Z,96004.05
2022-10-01T03:35:08.826Z,95998.11
2022-10-01T03:37:36.816Z,95997.25
2022-10-01T03:40:05.356Z,96001.06
2022-10-01T03:42:33.690Z,96001.98
2022-10-01T03:45:01.685Z,95998.37
2022-10-01T03:47:29.802Z,95995.35
2022-10-01T03:49:57.947Z,95994.08
2022-10-01T03:52:25.986Z,95995.21
2022-10-01T03:54:53.888Z,95998.80
2022-10-01T03:57:21.767Z,95995.09
2022-10-01T03:59:49.805Z,95990.14
2022-10-01T04:02:18.015Z,95987.98
2022-10-01T04:04:46.135Z,95987.60
2022-10-01T04:07:14.312Z,95987.08
2022-10-01T04:09:42.578Z,95983.80
2022-10-01T04:12:11.013Z,95980.48
2022-10-01T04:14:39.042Z,95975.21
2022-10-01T04:17:07.085Z,95969.29
2022-10-01T04:19:35.205Z,95967.07
2022-10-01T04:22:03.192Z,95971.34
2022-10-01T04:24:31.643Z,95970.17
2022-10-01T04:26:59.797Z,95967.64
2022-10-01T04:29:27.718Z,95964.17
2022-10-01T04:31:58.243Z,95961.41
2022-10-01T04:34:46.376Z,95965.00
2022-10-01T04:37:14.299Z,95964.23
2022-10-01T04:39:42.312Z,95961.44
2022-10-01T04:42:10.237Z,95962.14
2022-10-01T04:44:38.195Z,95958.31
2022-10-01T04:47:07.130Z,95959.48
2022-10-01T04:49:35.201Z,95961.58
2022-10-01T04:52:04.216Z,95958.08
2022-10-01T04:54:32.340Z,95954.41
2022-10-01T04:57:00.388Z,95957.35
2022-10-01T04:59:28.481Z,95957.39
2022-10-01T05:01:56.693Z,95960.33
2022-10-01T05:04:24.846Z,95961.71
2022-10-01T05:06:52.975Z,95960.89
2022-10-01T05:09:21.032Z,95962.48
2022-10-01T05:11:52.141Z,95964.04
2022-10-01T05:14:23.133Z,95972.91
2022-10-01T05:16:51.165Z,95973.80
2022-10-01T05:19:19.218Z,95968.48
2022-10-01T05:21:47.230Z,95966.65
2022-10-01T05:24:16.163Z,95968.80
2022-10-01T05:26:44.162Z,95970.55
2022-10-01T05:29:15.052Z,95969.90
2022-10-01T05:31:44.495Z,95969.23
2022-10-01T05:34:12.847Z,95967.36
2022-10-01T05:36:40.931Z,95975.18
2022-10-01T05:39:08.903Z,95980.71
2022-10-01T05:41:37.241Z,95978.83
2022-10-01T05:44:06.186Z,95973.82
2022-10-01T05:46:34.148Z,95972.64
2022-10-01T05:49:02.240Z,95973.34
2022-10-01T05:51:30.348Z,95973.60
2022-10-01T05:54:02.205Z,95976.64
2022-10-01T05:56:30.737Z,95985.95
2022-10-01T05:58:59.622Z,95986.95
2022-10-01T06:01:28.341Z,95984.48
2022-10-01T06:03:56.724Z,95982.05
2022-10-01T06:06:25.847Z,95977.65
2022-10-01T06:08:53.855Z,95974.95
2022-10-01T06:11:24.374Z,95973.36
2022-10-01T06:13:52.756Z,95974.77
2022-10-01T06:16:21.043Z,95971.66
2022-10-01T06:18:49.729Z,95971.55
2022-10-01T06:21:17.797Z,95971.96
2022-10-01T06:23:46.849Z,95972.56
2022-10-01T06:26:14.863Z,95973.43
2022-10-01T06:28:48.618Z,95975.91
2022-10-01T06:31:17.370Z,95974.17
2022-10-01T06:33:46.225Z,95965.80
2022-10-01T06:36:14.282Z,95963.69
2022-10-01T06:38:43.100Z,95962.64
2022-10-01T06:41:11.399Z,95966.92
2022-10-01T06:43:39.341Z,95967.96
2022-10-01T06:46:07.489Z,95967.02
2022-10-01T06:48:36.675Z,95970.42
2022-10-01T06:51:05.906Z,95972.86
2022-10-01T06:53:33.938Z,95968.14
2022-10-01T06:56:07.961Z,95967.16
2022-10-01T06:58:37.481Z,95964.81
2022-10-01T07:01:05.715Z,95965.98
2022-10-01T07:03:34.432Z,95967.97
2022-10-01T07:06:03.859Z,95970.98
2022-10-01T07:08:33.402Z,95968.79
2022-10-01T07:11:02.914Z,95966.58
2022-10-01T07:13:31.202Z,95971.68
2022-10-01T07:15:59.217Z,95966.79
2022-10-01T07:18:27.263Z,95965.34
2022-10-01T07:20:56.825Z,95964.97
2022-10-01T07:23:24.788Z,95957.92
2022-10-01T07:25:52.885Z,95952.08
2022-10-01T07:28:24.172Z,95953.16
2022-10-01T07:30:58.219Z,95952.45
2022-10-01T07:33:26.736Z,95946.23
2022-10-01T07:35:55.493Z,95943.70
2022-10-01T07:38:23.474Z,95943.43
2022-10-01T07:40:52.055Z,95945.34
2022-10-01T07:43:20.423Z,95946.40
2022-10-01T07:45:50.076Z,95945.60
2022-10-01T07:48:19.355Z,95938.66
2022-10-01T07:50:47.539Z,95938.67
2022-10-01T07:53:16.466Z,95935.98
2022-10-01T07:55:44.994Z,95932.55
2022-10-01T07:58:13.459Z,95932.21
2022-10-01T08:00:43.576Z,95932.30
2022-10-01T08:03:14.574Z,95930.94
2022-10-01T08:05:43.540Z,95930.10
2022-10-01T08:08:11.947Z,95930.38
2022-10-01T08:10:40.005Z,95935.60
2022-10-01T08:13:17.779Z,95935.58
2022-10-01T08:15:47.365Z,95938.16
2022-10-01T08:18:15.878Z,95941.38
2022-10-01T08:20:44.413Z,95932.11
2022-10-01T08:23:14.320Z,95926.98
2022-10-01T08:25:43.556Z,95925.56
2022-10-01T08:28:12.153Z,95923.97
2022-10-01T08:30:41.732Z,95924.61
2022-10-01T08:33:11.082Z,95926.35
2022-10-01T08:35:40.444Z,95923.55
2022-10-01T08:38:08.581Z,95921.48
2022-10-01T08:40:42.323Z,95917.39
2022-10-01T08:43:25.834Z,95917.54
2022-10-01T08:45:56.245Z,95915.70
2022-10-01T08:48:31.297Z,95911.35
2022-10-01T08:51:03.969Z,95907.89
2022-10-01T08:53:50.221Z,95907.31
2022-10-01T08:56:21.869Z,95909.23
2022-10-01T08:58:53.630Z,95905.23
2022-10-01T09:01:22.403Z,95902.61
2022-10-01T09:03:50.991Z,95897.45
2022-10-01T09:06:21.093Z,95895.15
2022-10-01T09:08:54.997Z,95891.61
2022-10-01T09:11:25.998Z,95891.66
2022-10-01T09:13:57.852Z,95889.84
2022-10-01T09:16:46.383Z,95891.60
2022-10-01T09:19:31.755Z,95893.17
2022-10-01T09:22:03.355Z,95891.05
2022-10-01T09:24:44.724Z,95890.19
2022-10-01T09:27:23.200Z,95894.54
2022-10-01T09:29:53.622Z,95888.54
2022-10-01T09:32:27.335Z,95885.96
2022-10-01T09:34:57.212Z,95884.40
2022-10-01T09:37:27.051Z,95882.31
2022-10-01T09:39:55.057Z,95881.05
2022-10-01T09:42:26.478Z,95875.96
2022-10-01T09:44:54.734Z,95876.04
2022-10-01T09:47:25.332Z,95873.13
2022-10-01T09:49:53.392Z,95869.79
2022-10-01T09:52:28.965Z,95869.52
2022-10-01T09:55:00.406Z,95861.05
2022-10-01T09:57:28.443Z,95855.08
2022-10-01T10:00:02.265Z,95856.33
2022-10-01T10:02:38.110Z,95857.98
2022-10-01T10:05:08.822Z,95860.46
2022-10-01T10:07:39.809Z,95858.74
2022-10-01T10:10:17.041Z,95860.42
2022-10-01T10:12:46.108Z,95853.77
2022-10-01T10:15:19.172Z,95854.30
2022-10-01T10:17:50.214Z,95853.88
2022-10-01T10:20:28.750Z,95855.85
2022-10-01T10:23:06.752Z,95854.43
2022-10-01T10:25:34.744Z,95849.62
2022-10-01T10:28:02.877Z,95849.30
2022-10-01T10:30:31.465Z,95843.02
2022-10-01T10:33:04.086Z,95838.54
2022-10-01T10:35:32.364Z,95833.59
2022-10-01T10:38:01.726Z,95830.26
2022-10-01T10:40:40.659Z,95826.98
2022-10-01T10:43:41.377Z,95816.73
2022-10-01T10:46:09.903Z,95809.98
2022-10-01T10:48:44.064Z,95805.69
2022-10-01T10:51:12.081Z,95802.19
2022-10-01T10:53:41.757Z,95795.13
2022-10-01T10:56:20.217Z,95792.70
2022-10-01T10:58:49.229Z,95785.49
2022-10-01T11:01:28.319Z,95781.52
2022-10-01T11:03:58.198Z,95774.02
2022-10-01T11:06:26.995Z,95765.95
2022-10-01T11:09:07.468Z,95764.52
2022-10-01T11:11:35.447Z,95755.70
2022-10-01T11:14:23.316Z,95751.52
2022-10-01T11:17:01.022Z,95747.61
2022-10-01T11:19:37.945Z,95739.27
2022-10-01T11:22:32.271Z,95734.48
2022-10-01T11:25:23.150Z,95727.61
2022-10-01T11:28:14.815Z,95728.87
2022-10-01T11:31:02.602Z,95723.36
2022-10-01T11:33:40.775Z,95718.23
2022-10-01T11:36:22.520Z,95716.77
2022-10-01T11:38:50.828Z,95711.42
2022-10-01T11:41:19.268Z,95710.73
2022-10-01T11:43:54.924Z,95707.22
2022-10-01T11:46:35.463Z,95707.99
2022-10-01T11:49:33.525Z,95704.34
2022-10-01T11:52:11.072Z,95698.95
2022-10-01T11:54:42.197Z,95696.90
2022-10-01T11:57:33.160Z,95693.90
2022-10-01T12:00:11.927Z,95684.22
2022-10-01T12:02:54.129Z,95680.26
2022-10-01T12:05:25.788Z,95679.21
2022-10-01T12:07:56.968Z,95676.96
2022-10-01T12:10:30.753Z,95680.84
2022-10-01T12:12:58.826Z,95680.70
2022-10-01T12:15:31.312Z,95679.95
2022-10-01T12:18:00.044Z,95672.73
2022-10-01T12:20:57.400Z,95672.80
2022-10-01T12:23:35.274Z,95669.12
2022-10-01T12:26:09.292Z,95668.06
2022-10-01T12:28:49.119Z,95659.23
2022-10-01T12:31:24.936Z,95650.63
2022-10-01T12:34:05.194Z,95649.48
2022-10-01T12:36:41.237Z,95650.98
2022-10-01T12:39:21.414Z,95650.15
2022-10-01T12:42:09.633Z,95649.68
2022-10-01T12:44:40.605Z,95647.02
2022-10-01T12:47:21.917Z,95640.97
2022-10-01T12:50:10.245Z,95636.55
2022-10-01T12:52:44.227Z,95632.17
2022-10-01T12:55:12.159Z,95634.04
2022-10-01T12:57:43.078Z,95630.93
2022-10-01T13:00:19.489Z,95625.22
2022-10-01T13:03:06.067Z,95621.13
2022-10-01T13:05:33.970Z,95616.15
2022-10-01T13:08:05.075Z,95616.51
2022-10-01T13:10:51.149Z,95617.04
2022-10-01T13:13:35.353Z,95615.59
2022-10-01T13:16:22.260Z,95608.45
2022-10-01T13:19:08.960Z,95604.90
2022-10-01T13:21:48.775Z,95601.83
2022-10-01T13:24:27.601Z,95594.41
2022-10-01T13:27:04.706Z,95596.31
2022-10-01T13:29:48.190Z,95603.02
2022-10-01T13:32:27.711Z,95602.88
2022-10-01T13:34:56.637Z,95602.77
2022-10-01T13:37:30.482Z,95596.91
2022-10-01T13:39:59.418Z,95591.36
2022-10-01T13:42:37.299Z,95591.57
2022-10-01T13:45:06.383Z,95589.13
2022-10-01T13:47:40.545Z,95585.91
2022-10-01T13:50:18.824Z,95584.37
2022-10-01T13:52:47.139Z,95580.89
2022-10-01T13:55:27.006Z,95580.27
2022-10-01T13:58:05.466Z,95584.20
2022-10-01T14:00:33.804Z,95580.55
2022-10-01T14:03:25.703Z,95570.95
2022-10-01T14:05:56.610Z,95571.92
2022-10-01T14:08:42.805Z,95567.80
2022-10-01T14:11:34.218Z,95561.23
2022-10-01T14:14:28.424Z,95562.06
2022-10-01T14:16:57.235Z,95562.26
2022-10-01T14:19:26.582Z,95555.36
2022-10-01T14:21:54.606Z,95555.52
2022-10-01T14:24:37.721Z,95552.56
2022-10-01T14:27:11.948Z,95549.95
2022-10-01T14:29:49.077Z,95550.77
2022-10-01T14:32:23.151Z,95546.36
2022-10-01T14:34:57.144Z,95547.70
2022-10-01T14:37:25.312Z,95544.17
2022-10-01T14:40:11.691Z,95544.99
2022-10-01T14:42:39.721Z,95540.29
2022-10-01T14:45:17.070Z,95539.70
2022-10-01T14:47:49.949Z,95535.48
2022-10-01T14:50:19.792Z,95532.95
2022-10-01T14:52:51.224Z,95532.53
2022-10-01T14:55:21.851Z,95528.54
2022-10-01T14:57:51.936Z,95525.83
2022-10-01T15:00:21.782Z,95530.04
2022-10-01T15:02:52.278Z,95532.66
2022-10-01T15:05:20.600Z,95536.40
2022-10-01T15:07:48.987Z,95529.67
2022-10-01T15:10:18.605Z,95522.17
2022-10-01T15:12:49.742Z,95513.08
2022-10-01T15:15:21.949Z,95512.71
2022-10-01T15:17:50.596Z,95506.90
2022-10-01T15:20:18.895Z,95503.46
2022-10-01T15:22:48.995Z,95502.84
2022-10-01T15:25:22.411Z,95502.59
2022-10-01T15:27:50.703Z,95507.90
2022-10-01T15:30:19.064Z,95509.98
2022-10-01T15:32:48.002Z,95509.16
2022-10-01T15:35:19.159Z,95507.00
2022-10-01T15:37:50.199Z,95504.23
2022-10-01T15:40:25.475Z,95501.55
2022-10-01T15:43:08.950Z,95500.63
2022-10-01T15:45:36.997Z,95489.14
2022-10-01T15:48:05.075Z,95492.04
2022-10-01T15:50:36.671Z,95487.64
2022-10-01T15:53:06.454Z,95485.95
2022-10-01T15:55:46.145Z,95481.98
2022-10-01T15:58:17.580Z,95480.51
2022-10-01T16:01:04.697Z,95477.60
2022-10-01T16:03:32.900Z,95480.34
2022-10-01T16:06:02.184Z,95483.47
2022-10-01T16:08:39.846Z,95482.02
2022-10-01T16:11:13.692Z,95479.63
2022-10-01T16:13:44.947Z,95476.98
2022-10-01T16:16:19.429Z,95473.84
2022-10-01T16:19:13.597Z,95477.30
2022-10-01T16:21:41.584Z,95471.97
2022-10-01T16:24:28.701Z,95471.29
2022-10-01T16:27:01.172Z,95471.48
2022-10-01T16:29:29.214Z,95470.56
2022-10-01T16:31:57.344Z,95468.64
2022-10-01T16:34:26.738Z,95469.80
2022-10-01T16:36:54.892Z,95469.07
2022-10-01T16:39:23.210Z,95471.73
2022-10-01T16:42:12.144Z,95472.29
2022-10-01T16:44:40.211Z,95472.33
2022-10-01T16:47:10.448Z,95471.54
2022-10-01T16:49:38.431Z,95467.02
2022-10-01T16:52:07.009Z,95466.45
2022-10-01T16:54:35.284Z,95469.15
2022-10-01T16:57:03.346Z,95467.72
2022-10-01T16:59:33.919Z,95468.52
2022-10-01T17:02:02.367Z,95469.11
2022-10-01T17:04:34.024Z,95466.10
2022-10-01T17:07:02.363Z,95463.59
2022-10-01T17:09:30.595Z,95464.43
2022-10-01T17:11:58.543Z,95457.33
2022-10-01T17:14:27.976Z,95455.50
2022-10-01T17:16:56.213Z,95449.87
2022-10-01T17:19:25.077Z,95445.76
2022-10-01T17:21:53.283Z,95442.85
2022-10-01T17:24:21.356Z,95447.46
2022-10-01T17:26:50.132Z,95447.88
2022-10-01T17:29:18.236Z,95447.67
2022-10-01T17:31:50.673Z,95447.42
2022-10-01T17:34:19.816Z,95442.45
2022-10-01T17:36:47.867Z,95442.58
2022-10-01T17:39:15.973Z,95439.54
2022-10-01T17:41:43.997Z,95434.15
2022-10-01T17:44:12.196Z,95433.20
2022-10-01T17:46:40.273Z,95427.88
2022-10-01T17:49:09.050Z,95438.16
2022-10-01T17:51:37.129Z,95439.98
2022-10-01T17:54:05.509Z,95437.27
2022-10-01T17:56:33.821Z,95434.77
2022-10-01T17:59:05.138Z,95428.98
2022-10-01T18:01:33.262Z,95428.38
2022-10-01T18:04:03.869Z,95427.13
2022-10-01T18:06:32.147Z,95427.58
2022-10-01T18:09:00.400Z,95420.42
2022-10-01T18:11:29.395Z,95420.25
2022-10-01T18:13:57.787Z,95417.80
2022-10-01T18:16:26.334Z,95421.30
2022-10-01T18:21:46.988Z,95416.14
2022-10-01T18:24:15.458Z,95416.14
2022-10-01T18:26:45.832Z,95414.47
2022-10-01T18:29:18.319Z,95420.52
2022-10-01T18:31:46.819Z,95415.90
2022-10-01T18:34:25.071Z,95415.93
2022-10-01T18:37:06.589Z,95416.05
2022-10-01T18:39:37.601Z,95422.02
2022-10-01T18:42:19.272Z,95424.63
2022-10-01T18:44:57.460Z,95427.49
2022-10-01T18:47:28.531Z,95425.16
2022-10-01T18:50:12.556Z,95424.92
2022-10-01T18:53:00.971Z,95423.99
2022-10-01T18:55:52.505Z,95425.79
2022-10-01T18:58:29.354Z,95434.28
2022-10-01T19:01:11.001Z,95439.44
2022-10-01T19:03:39.103Z,95448.29
2022-10-01T19:06:24.307Z,95452.73
2022-10-01T19:08:54.981Z,95456.11
2022-10-01T19:11:30.422Z,95456.01
2022-10-01T19:14:01.413Z,95458.20
2022-10-01T19:16:32.313Z,95462.91
2022-10-01T19:19:03.400Z,95464.61
2022-10-01T19:21:49.437Z,95464.35
2022-10-01T19:24:17.496Z,95464.91
2022-10-01T19:27:01.844Z,95470.11
2022-10-01T19:29:32.899Z,95470.52
2022-10-01T19:32:07.819Z,95470.05
2022-10-01T19:34:41.720Z,95474.09
2022-10-01T19:37:15.384Z,95474.02
2022-10-01T19:39:45.272Z,95478.83
2022-10-01T19:42:16.711Z,95481.07
2022-10-01T19:44:55.915Z,95485.59
2022-10-01T19:47:44.140Z,95488.78
2022-10-01T19:50:21.274Z,95491.39
2022-10-01T19:52:51.767Z,95492.55
2022-10-01T19:55:21.692Z,95491.16
2022-10-01T19:57:50.077Z,95489.89
2022-10-01T20:00:21.645Z,95492.02
2022-10-01T20:02:49.727Z,95495.07
2022-10-01T20:05:29.848Z,95496.52
2022-10-01T20:08:01.349Z,95498.48
2022-10-01T20:10:48.070Z,95501.13
2022-10-01T20:13:19.445Z,95509.27
2022-10-01T20:15:48.372Z,95513.66
2022-10-01T20:18:32.948Z,95514.13
2022-10-01T20:21:19.689Z,95520.81
2022-10-01T20:23:53.776Z,95525.59
2022-10-01T20:26:40.407Z,95528.11
2022-10-01T20:29:20.758Z,95531.05
2022-10-01T20:31:55.860Z,95534.06
2022-10-01T20:34:31.124Z,95535.10
2022-10-01T20:37:11.457Z,95533.04
2022-10-01T20:39:41.999Z,95531.61
2022-10-01T20:42:24.235Z,95534.57
2022-10-01T20:44:53.630Z,95537.50
2022-10-01T20:47:44.086Z,95544.96
2022-10-01T20:50:26.262Z,95543.04
2022-10-01T20:53:03.864Z,95543.38
2022-10-01T20:55:40.725Z,95542.08
2022-10-01T20:58:15.447Z,95542.59
2022-10-01T21:00:45.940Z,95542.30
2022-10-01T21:03:23.574Z,95543.16
2022-10-01T21:05:57.159Z,95545.23
2022-10-01T21:08:28.207Z,95545.98
2022-10-01T21:11:02.601Z,95543.57
2022-10-01T21:13:30.727Z,95546.99
2022-10-01T21:16:17.331Z,95549.59
2022-10-01T21:19:04.560Z,95549.33
2022-10-01T21:21:35.619Z,95543.99
2022-10-01T21:24:19.061Z,95543.36
2022-10-01T21:26:50.164Z,95547.32
2022-10-01T21:29:19.684Z,95545.21
2022-10-01T21:32:06.348Z,95551.16
2022-10-01T21:34:34.307Z,95552.73
2022-10-01T21:37:10.879Z,95553.55
2022-10-01T21:39:52.209Z,95555.48
2022-10-01T21:42:58.836Z,95551.59
2022-10-01T21:45:45.775Z,95554.11
2022-10-01T21:48:17.097Z,95553.02
2022-10-01T21:50:48.076Z,95558.85
2022-10-01T21:53:36.364Z,95563.77
2022-10-01T21:56:06.559Z,95563.80
2022-10-01T21:58:53.399Z,95568.65
2022-10-01T22:01:27.282Z,95567.95
2022-10-01T22:04:01.670Z,95571.30
2022-10-01T22:07:02.204Z,95572.44
2022-10-01T22:09:43.169Z,95565.02
2022-10-01T22:12:12.263Z,95562.91
2022-10-01T22:14:41.210Z,95567.94
2022-10-01T22:17:15.868Z,95569.84
2022-10-01T22:19:48.928Z,95570.01
2022-10-01T22:22:30.216Z,95571.27
2022-10-01T22:24:59.460Z,95575.02
2022-10-01T22:27:27.764Z,95573.07
2022-10-01T22:29:58.447Z,95574.14
2022-10-01T22:32:29.245Z,95571.21
2022-10-01T22:35:03.231Z,95574.23
2022-10-01T22:37:34.152Z,95570.55
2022-10-01T22:40:10.338Z,95573.20
2022-10-01T22:42:42.668Z,95574.95
2022-10-01T22:45:15.769Z,95581.75
2022-10-01T22:47:53.886Z,95579.78
2022-10-01T22:50:31.476Z,95582.73
2022-10-01T22:53:09.027Z,95581.50
2022-10-01T22:55:48.368Z,95582.52
2022-10-01T22:58:19.462Z,95579.60
2022-10-01T23:00:51.384Z,95583.64
2022-10-01T23:03:28.732Z,95585.31
2022-10-01T23:06:01.968Z,95588.08
2022-10-01T23:08:49.935Z,95587.53
2022-10-01T23:11:25.195Z,95592.69
2022-10-01T23:14:02.782Z,95590.21
2022-10-01T23:16:31.039Z,95596.39
2022-10-01T23:18:59.119Z,95601.36
2022-10-01T23:21:36.271Z,95603.73
2022-10-01T23:24:07.328Z,95606.85
2022-10-01T23:26:54.048Z,95604.05
2022-10-01T23:29:39.723Z,95606.45
2022-10-01T23:32:17.079Z,95608.89
2022-10-01T23:34:52.206Z,95612.52
2022-10-01T23:37:21.625Z,95616.29
2022-10-01T23:40:01.728Z,95619.98
2022-10-01T23:42:42.617Z,95618.73
2022-10-01T23:45:22.158Z,95621.64
2022-10-01T23:48:01.936Z,95621.80
2022-10-01T23:50:32.002Z,95627.16
2022-10-01T23:53:03.596Z,95630.18
2022-10-01T23:56:00.765Z,95636.83
2022-10-01T23:58:30.265Z,95634.09
